createdAt,value
2023-01-02T00:01:36.439Z,5.07
2023-01-02T00:04:03.660Z,4.90
2023-01-02T00:06:34.620Z,4.27
2023-01-02T00:09:02.089Z,4.43
2023-01-02T00:11:29.251Z,4.80
2023-01-02T00:13:56.461Z,4.47
2023-01-02T00:16:23.884Z,4.87
2023-01-02T00:18:51.280Z,4.37
2023-01-02T00:21:18.530Z,4.87
2023-01-02T00:23:45.716Z,4.90
2023-01-02T00:26:12.886Z,4.60
2023-01-02T00:28:40.240Z,4.43
2023-01-02T00:31:08.424Z,5.30
2023-01-02T00:33:36.147Z,4.20
2023-01-02T00:36:07.266Z,4.57
2023-01-02T00:38:37.979Z,4.80
2023-01-02T00:41:05.909Z,5.23
2023-01-02T00:43:33.187Z,4.40
2023-01-02T00:46:01.213Z,5.00
2023-01-02T00:48:30.879Z,4.97
2023-01-02T00:50:58.153Z,5.07
2023-01-02T00:53:25.366Z,4.83
2023-01-02T00:55:52.499Z,5.37
2023-01-02T00:58:19.624Z,4.70
2023-01-02T01:00:46.819Z,5.23
2023-01-02T01:03:13.984Z,4.93
2023-01-02T01:05:41.335Z,4.93
2023-01-02T01:08:08.493Z,5.53
2023-01-02T01:10:36.858Z,5.47
2023-01-02T01:13:04.717Z,5.57
2023-01-02T01:15:31.895Z,5.27
2023-01-02T01:17:59.068Z,5.23
2023-01-02T01:20:26.217Z,5.30
2023-01-02T01:22:53.400Z,5.67
2023-01-02T01:25:20.600Z,5.33
2023-01-02T01:27:47.702Z,5.13
2023-01-02T01:30:15.072Z,5.20
2023-01-02T01:32:42.219Z,5.20
2023-01-02T01:35:09.433Z,5.17
2023-01-02T01:37:38.905Z,5.07
2023-01-02T01:40:06.619Z,4.73
2023-01-02T01:42:34.546Z,5.23
2023-01-02T01:45:01.819Z,5.20
2023-01-02T01:47:41.039Z,5.87
2023-01-02T01:50:08.161Z,6.00
2023-01-02T01:52:36.948Z,5.40
2023-01-02T01:55:24.630Z,5.37
2023-01-02T01:57:58.401Z,5.30
2023-01-02T02:00:25.636Z,5.27
2023-01-02T02:02:55.964Z,5.80
2023-01-02T02:05:24.472Z,5.33
2023-01-02T02:07:57.803Z,5.60
2023-01-02T02:10:24.946Z,5.37
2023-01-02T02:12:52.068Z,5.80
2023-01-02T02:15:21.931Z,5.70
2023-01-02T02:17:54.863Z,5.90
2023-01-02T02:20:21.970Z,6.07
2023-01-02T02:23:07.765Z,5.70
2023-01-02T02:25:53.369Z,5.93
2023-01-02T02:28:35.510Z,5.50
2023-01-02T02:31:13.890Z,6.17
2023-01-02T02:33:57.214Z,6.43
2023-01-02T02:36:27.193Z,6.20
2023-01-02T02:39:06.258Z,6.43
2023-01-02T02:41:33.427Z,5.90
2023-01-02T02:44:05.285Z,6.10
2023-01-02T02:46:32.446Z,5.67
2023-01-02T02:49:04.938Z,5.43
2023-01-02T02:51:38.265Z,7.03
2023-01-02T02:54:13.627Z,5.80
2023-01-02T02:56:42.149Z,6.53
2023-01-02T02:59:09.453Z,6.37
2023-01-02T03:01:37.120Z,6.60
2023-01-02T03:04:09.727Z,6.20
2023-01-02T03:07:04.548Z,6.20
2023-01-02T03:09:43.536Z,6.40
2023-01-02T03:12:13.484Z,6.03
2023-01-02T03:14:45.964Z,6.17
2023-01-02T03:17:19.946Z,6.43
2023-01-02T03:19:50.842Z,6.17
2023-01-02T03:22:20.213Z,6.33
2023-01-02T03:24:48.543Z,6.40
2023-01-02T03:27:19.397Z,6.60
2023-01-02T03:30:06.792Z,7.27
2023-01-02T03:32:35.436Z,7.73
2023-01-02T03:35:04.532Z,7.30
2023-01-02T03:37:33.181Z,6.90
2023-01-02T03:40:03.641Z,6.80
2023-01-02T03:42:36.388Z,7.03
2023-01-02T03:45:08.225Z,7.23
2023-01-02T03:47:35.336Z,7.20
2023-01-02T03:50:05.744Z,6.17
2023-01-02T03:52:32.941Z,6.70
2023-01-02T03:55:01.191Z,6.80
2023-01-02T03:57:32.419Z,6.70
2023-01-02T04:00:02.113Z,6.13
2023-01-02T04:02:32.492Z,7.53
2023-01-02T04:05:01.834Z,6.87
2023-01-02T04:07:38.515Z,6.23
2023-01-02T04:10:07.312Z,6.50
2023-01-02T04:12:36.567Z,7.27
2023-01-02T04:15:07.726Z,7.20
2023-01-02T04:17:37.255Z,6.17
2023-01-02T04:20:06.765Z,8.17
2023-01-02T04:22:39.416Z,7.57
2023-01-02T04:25:14.283Z,6.13
2023-01-02T04:27:47.829Z,7.40
2023-01-02T04:30:15.541Z,7.97
2023-01-02T04:32:43.357Z,6.97
2023-01-02T04:35:12.178Z,7.80
2023-01-02T04:37:41.116Z,7.20
2023-01-02T04:40:11.555Z,7.27
2023-01-02T04:42:38.803Z,7.43
2023-01-02T04:45:06.155Z,6.60
2023-01-02T04:47:33.301Z,6.93
2023-01-02T04:50:00.472Z,6.20
2023-01-02T04:52:32.021Z,6.47
2023-01-02T04:55:02.552Z,7.23
2023-01-02T04:57:29.664Z,6.43
2023-01-02T04:59:56.799Z,6.07
2023-01-02T05:02:24.067Z,5.00
2023-01-02T05:04:51.343Z,5.47
2023-01-02T05:07:18.555Z,5.50
2023-01-02T05:09:45.745Z,6.43
2023-01-02T05:12:12.877Z,6.47
2023-01-02T05:14:40.033Z,6.70
2023-01-02T05:17:07.151Z,7.23
2023-01-02T05:19:34.391Z,7.17
2023-01-02T05:22:20.129Z,7.50
2023-01-02T05:24:47.388Z,7.17
2023-01-02T05:27:14.563Z,6.97
2023-01-02T05:29:41.723Z,6.90
2023-01-02T05:32:08.872Z,6.60
2023-01-02T05:34:36.012Z,7.17
2023-01-02T05:37:03.302Z,7.37
2023-01-02T05:39:30.421Z,7.67
2023-01-02T05:41:57.604Z,7.73
2023-01-02T05:44:24.738Z,6.20
2023-01-02T05:46:51.932Z,5.77
2023-01-02T05:49:19.190Z,5.87
2023-01-02T05:51:46.320Z,6.20
2023-01-02T05:54:13.500Z,5.47
2023-01-02T05:56:40.654Z,6.20
2023-01-02T05:59:08.745Z,5.57
2023-01-02T06:01:36.110Z,5.90
2023-01-02T06:04:03.428Z,5.57
2023-01-02T06:06:32.401Z,5.30
2023-01-02T06:09:00.135Z,5.30
2023-01-02T06:11:28.250Z,5.80
2023-01-02T06:13:55.828Z,6.13
2023-01-02T06:16:23.473Z,6.20
2023-01-02T06:18:51.055Z,6.33
2023-01-02T06:21:19.112Z,5.33
2023-01-02T06:23:46.570Z,6.40
2023-01-02T06:26:18.626Z,7.70
2023-01-02T06:28:46.269Z,7.07
2023-01-02T06:31:17.486Z,7.87
2023-01-02T06:33:45.004Z,8.70
2023-01-02T06:36:13.754Z,9.07
2023-01-02T06:38:40.998Z,8.97
2023-01-02T06:41:09.039Z,9.07
2023-01-02T06:43:37.324Z,8.47
2023-01-02T06:46:05.750Z,8.03
2023-01-02T06:48:33.759Z,9.10
2023-01-02T06:51:00.969Z,8.20
2023-01-02T06:53:28.151Z,8.87
2023-01-02T06:55:56.637Z,8.10
2023-01-02T06:58:24.978Z,7.90
2023-01-02T07:00:52.231Z,6.40
2023-01-02T07:03:19.633Z,6.10
2023-01-02T07:05:46.963Z,5.63
2023-01-02T07:08:14.542Z,5.33
2023-01-02T07:10:41.698Z,4.77
2023-01-02T07:13:08.875Z,4.33
2023-01-02T07:15:36.371Z,4.00
2023-01-02T07:18:03.563Z,3.83
2023-01-02T07:20:30.700Z,3.27
2023-01-02T07:22:57.824Z,3.60
2023-01-02T07:25:25.032Z,3.20
2023-01-02T07:27:52.224Z,3.17
2023-01-02T07:30:19.375Z,3.37
2023-01-02T07:32:46.515Z,3.40
2023-01-02T07:35:13.650Z,3.00
2023-01-02T07:37:40.792Z,2.83
2023-01-02T07:40:08.347Z,2.90
2023-01-02T07:42:35.543Z,3.00
2023-01-02T07:45:02.672Z,3.63
2023-01-02T07:47:29.790Z,3.27
2023-01-02T07:49:56.918Z,3.20
2023-01-02T07:52:24.065Z,3.07
2023-01-02T07:54:51.228Z,3.40
2023-01-02T07:57:18.461Z,2.80
2023-01-02T07:59:47.042Z,2.90
2023-01-02T08:02:14.426Z,2.57
2023-01-02T08:04:41.669Z,3.00
2023-01-02T08:07:10.259Z,2.80
2023-01-02T08:09:37.376Z,2.60
2023-01-02T08:12:04.626Z,2.93
2023-01-02T08:14:31.771Z,2.50
2023-01-02T08:16:58.936Z,2.73
2023-01-02T08:19:26.099Z,2.43
2023-01-02T08:21:53.240Z,2.83
2023-01-02T08:24:20.359Z,2.60
2023-01-02T08:26:47.539Z,2.90
2023-01-02T08:29:14.681Z,2.80
2023-01-02T08:31:43.897Z,2.93
2023-01-02T08:34:15.247Z,3.00
2023-01-02T08:36:42.941Z,3.27
2023-01-02T08:39:10.116Z,3.30
2023-01-02T08:41:41.147Z,2.97
2023-01-02T08:44:08.566Z,2.80
2023-01-02T08:46:42.244Z,2.80
2023-01-02T08:49:10.309Z,3.00
2023-01-02T08:51:37.581Z,3.30
2023-01-02T08:54:04.747Z,3.07
2023-01-02T08:56:32.968Z,2.70
2023-01-02T08:59:01.357Z,3.10
2023-01-02T09:01:29.546Z,2.87
2023-01-02T09:03:57.242Z,3.03
2023-01-02T09:06:25.760Z,3.37
2023-01-02T09:08:55.288Z,3.30
2023-01-02T09:11:24.009Z,3.33
2023-01-02T09:13:51.565Z,3.30
2023-01-02T09:16:18.765Z,3.37
2023-01-02T09:18:46.276Z,3.50
2023-01-02T09:21:13.466Z,4.00
2023-01-02T09:23:40.650Z,4.33
2023-01-02T09:26:08.303Z,4.10
2023-01-02T09:28:36.198Z,4.70
2023-01-02T09:31:12.442Z,5.30
2023-01-02T09:33:40.505Z,4.97
2023-01-02T09:36:08.605Z,5.47
2023-01-02T09:38:35.778Z,5.50
2023-01-02T09:41:10.884Z,5.87
2023-01-02T09:43:46.409Z,6.00
2023-01-02T09:46:17.606Z,5.73
2023-01-02T09:48:44.799Z,6.30
2023-01-02T09:51:12.389Z,5.73
2023-01-02T09:53:39.669Z,5.97
2023-01-02T09:56:19.321Z,5.83
2023-01-02T09:58:58.873Z,5.60
2023-01-02T10:01:32.530Z,5.90
2023-01-02T10:04:14.734Z,6.17
2023-01-02T10:06:47.917Z,5.47
2023-01-02T10:09:33.564Z,5.07
2023-01-02T10:12:04.863Z,5.23
2023-01-02T10:14:43.919Z,5.53
2023-01-02T10:17:13.475Z,5.03
2023-01-02T10:19:46.932Z,4.83
2023-01-02T10:22:19.467Z,4.50
2023-01-02T10:24:48.378Z,4.60
2023-01-02T10:27:20.253Z,4.57
2023-01-02T10:30:06.227Z,5.17
2023-01-02T10:32:34.042Z,4.37
2023-01-02T10:35:07.373Z,4.70
2023-01-02T10:37:34.889Z,5.03
2023-01-02T10:40:02.036Z,4.43
2023-01-02T10:42:31.428Z,4.33
2023-01-02T10:44:58.581Z,3.97
2023-01-02T10:47:31.736Z,3.63
2023-01-02T10:49:59.079Z,3.93
2023-01-02T10:52:33.031Z,3.33
2023-01-02T10:55:00.977Z,3.83
2023-01-02T10:57:34.134Z,3.33
2023-01-02T11:00:01.916Z,3.60
2023-01-02T11:02:37.270Z,3.20
2023-01-02T11:05:05.495Z,3.37
2023-01-02T11:07:34.523Z,3.50
2023-01-02T11:10:01.704Z,3.30
2023-01-02T11:12:28.911Z,3.30
2023-01-02T11:15:10.956Z,3.70
2023-01-02T11:17:42.644Z,3.47
2023-01-02T11:20:22.700Z,3.60
2023-01-02T11:22:49.833Z,3.57
2023-01-02T11:25:21.513Z,4.07
2023-01-02T11:27:49.194Z,3.70
2023-01-02T11:30:27.727Z,3.80
2023-01-02T11:33:04.057Z,3.37
2023-01-02T11:35:37.082Z,3.00
2023-01-02T11:38:04.507Z,3.23
2023-01-02T11:40:32.649Z,3.10
2023-01-02T11:43:23.079Z,3.13
2023-01-02T11:45:50.790Z,3.47
2023-01-02T11:48:22.734Z,3.80
2023-01-02T11:50:50.950Z,3.20
2023-01-02T11:53:18.062Z,3.20
2023-01-02T11:55:53.911Z,3.20
2023-01-02T11:58:21.042Z,2.93
2023-01-02T12:00:51.874Z,3.67
2023-01-02T12:03:22.010Z,3.90
2023-01-02T12:05:58.183Z,3.20
2023-01-02T12:08:38.058Z,3.07
2023-01-02T12:11:08.247Z,3.37
2023-01-02T12:14:07.567Z,3.27
2023-01-02T12:16:37.689Z,3.73
2023-01-02T12:19:23.634Z,3.53
2023-01-02T12:22:09.273Z,3.43
2023-01-02T12:24:48.703Z,3.50
2023-01-02T12:27:28.301Z,3.20
2023-01-02T12:30:04.645Z,3.30
2023-01-02T12:32:50.489Z,4.07
2023-01-02T12:35:26.799Z,4.00
2023-01-02T12:37:55.697Z,3.53
2023-01-02T12:40:22.842Z,3.83
2023-01-02T12:42:56.156Z,4.10
2023-01-02T12:45:23.253Z,4.47
2023-01-02T12:48:02.720Z,4.50
2023-01-02T12:50:49.196Z,4.50
2023-01-02T12:53:16.619Z,4.40
2023-01-02T12:56:05.467Z,4.80
2023-01-02T12:58:35.667Z,5.30
2023-01-02T13:01:21.701Z,5.17
2023-01-02T13:04:07.816Z,5.03
2023-01-02T13:06:53.810Z,5.20
2023-01-02T13:09:37.332Z,4.70
2023-01-02T13:12:06.871Z,4.80
2023-01-02T13:14:37.671Z,5.13
2023-01-02T13:17:30.987Z,5.47
2023-01-02T13:20:01.216Z,5.27
2023-01-02T13:22:40.608Z,5.20
2023-01-02T13:25:13.183Z,5.40
2023-01-02T13:27:40.729Z,6.03
2023-01-02T13:30:08.275Z,5.83
2023-01-02T13:32:35.427Z,5.80
2023-01-02T13:35:04.149Z,6.50
2023-01-02T13:37:31.668Z,6.90
2023-01-02T13:40:01.824Z,6.10
2023-01-02T13:42:52.640Z,5.87
2023-01-02T13:45:43.870Z,5.70
2023-01-02T13:48:29.495Z,6.63
2023-01-02T13:51:01.262Z,6.60
2023-01-02T13:53:32.748Z,6.70
2023-01-02T13:56:10.650Z,6.03
2023-01-02T13:58:40.850Z,6.60
2023-01-02T14:01:34.345Z,6.10
2023-01-02T14:04:15.751Z,6.50
2023-01-02T14:06:46.158Z,6.17
2023-01-02T14:09:15.753Z,5.30
2023-01-02T14:11:56.627Z,4.83
2023-01-02T14:14:24.515Z,4.90
2023-01-02T14:16:57.886Z,5.00
2023-01-02T14:19:26.301Z,5.50
2023-01-02T14:21:53.515Z,5.27
2023-01-02T14:24:29.635Z,4.83
2023-01-02T14:27:01.995Z,5.10
2023-01-02T14:29:30.068Z,5.37
2023-01-02T14:32:06.275Z,5.40
2023-01-02T14:34:34.176Z,4.90
2023-01-02T14:37:02.581Z,5.40
2023-01-02T14:39:33.471Z,5.80
2023-01-02T14:42:29.352Z,6.37
2023-01-02T14:45:00.108Z,7.00
2023-01-02T14:47:40.744Z,6.87
2023-01-02T14:50:13.347Z,5.63
2023-01-02T14:52:43.469Z,5.63
2023-01-02T14:55:22.692Z,5.30
2023-01-02T14:57:51.303Z,4.93
2023-01-02T15:00:22.735Z,4.63
2023-01-02T15:02:53.960Z,3.93
2023-01-02T15:05:26.909Z,4.80
2023-01-02T15:07:55.659Z,4.47
2023-01-02T15:10:24.112Z,4.53
2023-01-02T15:13:09.283Z,4.17
2023-01-02T15:15:39.552Z,4.43
2023-01-02T15:18:12.930Z,4.63
2023-01-02T15:20:40.169Z,5.43
2023-01-02T15:23:07.658Z,5.20
2023-01-02T15:25:39.392Z,6.00
2023-01-02T15:28:07.357Z,8.13
2023-01-02T15:30:38.404Z,8.43
2023-01-02T15:33:06.469Z,8.17
2023-01-02T15:35:36.108Z,8.27
2023-01-02T15:38:05.286Z,7.67
2023-01-02T15:40:34.196Z,7.77
2023-01-02T15:43:22.067Z,7.20
2023-01-02T15:45:51.470Z,8.17
2023-01-02T15:48:22.595Z,7.13
2023-01-02T15:50:52.507Z,7.40
2023-01-02T15:53:34.478Z,6.13
2023-01-02T15:56:01.676Z,5.70
2023-01-02T15:58:30.471Z,5.10
2023-01-02T16:01:13.880Z,5.80
2023-01-02T16:04:01.274Z,4.50
2023-01-02T16:06:34.350Z,4.33
2023-01-02T16:09:02.641Z,4.90
2023-01-02T16:11:30.103Z,6.07
2023-01-02T16:14:19.612Z,5.70
2023-01-02T16:16:50.161Z,6.23
2023-01-02T16:19:32.031Z,5.87
2023-01-02T16:22:07.787Z,5.90
2023-01-02T16:24:36.421Z,4.80
2023-01-02T16:27:04.928Z,5.10
2023-01-02T16:29:32.145Z,5.23
2023-01-02T16:32:02.846Z,4.60
2023-01-02T16:34:35.847Z,4.30
2023-01-02T16:37:10.662Z,4.33
2023-01-02T16:39:42.887Z,4.50
2023-01-02T16:42:42.402Z,4.77
2023-01-02T16:45:11.812Z,4.20
2023-01-02T16:47:40.349Z,4.60
2023-01-02T16:50:09.346Z,3.70
2023-01-02T16:52:37.088Z,4.37
2023-01-02T16:55:04.608Z,4.40
2023-01-02T16:57:31.797Z,4.60
2023-01-02T16:59:58.925Z,4.70
2023-01-02T17:02:26.171Z,4.13
2023-01-02T17:04:53.474Z,4.40
2023-01-02T17:07:22.539Z,4.10
2023-01-02T17:09:50.101Z,3.50
2023-01-02T17:12:17.242Z,3.23
2023-01-02T17:14:44.389Z,4.03
2023-01-02T17:17:11.574Z,3.80
2023-01-02T17:19:38.722Z,3.60
2023-01-02T17:22:05.944Z,3.33
2023-01-02T17:24:33.097Z,3.23
2023-01-02T17:27:00.234Z,2.90
2023-01-02T17:29:29.553Z,3.00
2023-01-02T17:31:56.810Z,3.23
2023-01-02T17:34:24.190Z,3.00
2023-01-02T17:36:51.387Z,2.70
2023-01-02T17:39:18.553Z,2.77
2023-01-02T17:41:45.776Z,2.80
2023-01-02T17:44:12.929Z,2.77
2023-01-02T17:49:27.650Z,2.40
2023-01-02T17:51:54.870Z,2.40
2023-01-02T17:54:22.096Z,2.40
2023-01-02T17:56:49.324Z,2.80
2023-01-02T17:59:19.267Z,2.70
2023-01-02T18:01:46.934Z,2.43
2023-01-02T18:04:14.207Z,2.80
2023-01-02T18:06:41.380Z,2.70
2023-01-02T18:09:08.687Z,3.30
2023-01-02T18:11:37.050Z,3.23
2023-01-02T18:14:04.281Z,2.63
2023-01-02T18:16:41.723Z,2.80
2023-01-02T18:19:20.931Z,2.33
2023-01-02T18:21:48.413Z,2.70
2023-01-02T18:24:23.355Z,2.40
2023-01-02T18:26:51.375Z,3.23
2023-01-02T18:29:23.105Z,3.10
2023-01-02T18:31:51.455Z,3.17
2023-01-02T18:34:47.763Z,3.27
2023-01-02T18:37:36.792Z,3.20
2023-01-02T18:40:14.843Z,3.37
2023-01-02T18:42:42.517Z,3.17
2023-01-02T18:45:14.843Z,4.77
2023-01-02T18:47:42.443Z,6.37
2023-01-02T18:50:09.562Z,5.40
2023-01-02T18:52:37.208Z,5.50
2023-01-02T18:55:16.403Z,5.80
2023-01-02T18:58:03.962Z,5.57
2023-01-02T19:00:32.773Z,5.00
2023-01-02T19:03:01.618Z,6.77
2023-01-02T19:05:28.907Z,7.20
2023-01-02T19:08:07.941Z,5.90
2023-01-02T19:10:38.846Z,5.83
2023-01-02T19:13:12.867Z,5.87
2023-01-02T19:15:49.068Z,5.97
2023-01-02T19:18:16.267Z,7.17
2023-01-02T19:20:44.460Z,5.10
2023-01-02T19:23:31.575Z,3.70
2023-01-02T19:26:12.526Z,5.30
2023-01-02T19:28:41.595Z,6.07
2023-01-02T19:31:13.435Z,5.83
2023-01-02T19:33:41.775Z,5.50
2023-01-02T19:36:32.004Z,4.73
2023-01-02T19:38:59.467Z,5.17
2023-01-02T19:42:01.892Z,3.90
2023-01-02T19:44:29.039Z,3.10
2023-01-02T19:46:56.195Z,2.43
2023-01-02T19:49:23.308Z,2.30
2023-01-02T19:51:50.439Z,2.90
2023-01-02T19:54:17.593Z,3.70
2023-01-02T19:56:44.748Z,3.70
2023-01-02T19:59:13.033Z,3.20
2023-01-02T20:01:40.363Z,3.80
2023-01-02T20:04:07.539Z,3.00
2023-01-02T20:06:35.938Z,3.30
2023-01-02T20:09:04.354Z,3.30
2023-01-02T20:11:50.559Z,3.10
2023-01-02T20:14:17.871Z,3.40
2023-01-02T20:16:45.046Z,2.90
2023-01-02T20:19:12.207Z,2.40
2023-01-02T20:21:39.345Z,2.17
2023-01-02T20:24:06.652Z,2.87
2023-01-02T20:26:33.800Z,3.70
2023-01-02T20:29:01.003Z,4.23
2023-01-02T20:31:28.233Z,3.33
2023-01-02T20:33:55.719Z,2.40
2023-01-02T20:36:22.939Z,1.67
2023-01-02T20:38:50.116Z,1.90
2023-01-02T20:41:17.261Z,1.80
2023-01-02T20:43:44.401Z,1.20
2023-01-02T20:46:11.608Z,1.40
2023-01-02T20:48:38.853Z,1.40
2023-01-02T20:51:06.119Z,1.57
2023-01-02T20:53:33.268Z,1.50
2023-01-02T20:56:00.503Z,1.30
2023-01-02T20:58:27.738Z,1.13
2023-01-02T21:00:54.864Z,1.43
2023-01-02T21:03:22.076Z,1.10
2023-01-02T21:05:49.327Z,1.20
2023-01-02T21:08:16.452Z,1.20
2023-01-02T21:10:43.586Z,1.40
2023-01-02T21:13:10.995Z,1.07
2023-01-02T21:15:42.185Z,1.20
2023-01-02T21:18:10.111Z,0.83
2023-01-02T21:20:42.593Z,1.20
2023-01-02T21:23:13.189Z,1.30
2023-01-02T21:25:40.412Z,2.30
2023-01-02T21:28:07.930Z,1.60
2023-01-02T21:30:35.391Z,1.33
2023-01-02T21:33:02.535Z,1.40
2023-01-02T21:35:29.669Z,1.37
2023-01-02T21:37:56.802Z,1.60
2023-01-02T21:40:24.003Z,1.80
2023-01-02T21:42:51.195Z,1.40
2023-01-02T21:45:18.394Z,1.43
2023-01-02T21:47:45.545Z,1.57
2023-01-02T21:50:13.217Z,1.60
2023-01-02T21:52:40.349Z,1.33
2023-01-02T21:55:08.080Z,1.70
2023-01-02T21:58:11.025Z,2.07
2023-01-02T22:00:24.720Z,1.70
2023-01-02T22:02:52.242Z,1.80
2023-01-02T22:05:20.223Z,1.80
2023-01-02T22:07:47.470Z,1.70
2023-01-02T22:10:15.394Z,1.50
2023-01-02T22:12:43.100Z,1.50
2023-01-02T22:15:11.658Z,1.60
2023-01-02T22:17:38.805Z,1.97
2023-01-02T22:20:06.230Z,2.50
2023-01-02T22:22:33.403Z,2.67
2023-01-02T22:25:00.724Z,2.90
2023-01-02T22:27:27.959Z,2.80
2023-01-02T22:32:44.136Z,2.30
2023-01-02T22:35:11.402Z,2.20
2023-01-02T22:37:38.558Z,2.33
2023-01-02T22:40:05.980Z,2.60
2023-01-02T22:43:08.993Z,2.60
2023-01-02T22:45:44.469Z,2.43
2023-01-02T22:48:33.300Z,2.43
2023-01-02T22:51:00.919Z,2.70
2023-01-02T22:53:29.394Z,2.90
2023-01-02T22:55:56.656Z,3.30
2023-01-02T22:58:24.255Z,2.97
2023-01-02T23:00:59.665Z,3.33
2023-01-02T23:03:29.122Z,3.20
2023-01-02T23:05:56.523Z,3.70
2023-01-02T23:08:23.742Z,4.20
2023-01-02T23:10:50.987Z,4.30
2023-01-02T23:13:18.192Z,4.57
2023-01-02T23:16:04.050Z,5.00
2023-01-02T23:18:56.227Z,3.43
2023-01-02T23:21:24.821Z,3.20
2023-01-02T23:23:52.195Z,2.50
2023-01-02T23:26:19.501Z,2.30
2023-01-02T23:31:34.491Z,2.00
2023-01-02T23:34:01.733Z,1.93
2023-01-02T23:36:28.850Z,2.07
2023-01-02T23:38:56.054Z,2.23
2023-01-02T23:41:23.232Z,2.37
2023-01-02T23:43:51.526Z,2.20
2023-01-02T23:46:18.918Z,1.60
2023-01-02T23:48:46.088Z,1.30
2023-01-02T23:51:13.212Z,1.50
2023-01-02T23:53:40.351Z,1.40
2023-01-02T23:56:16.470Z,1.40
2023-01-02T23:58:43.637Z,1.50
